createdAt,value
2017-11-18T00:01:06.105Z,35.70
2017-11-18T00:03:34.922Z,38.70
2017-11-18T00:06:04.821Z,47.70
2017-11-18T00:08:33.935Z,41.80
2017-11-18T00:11:02.825Z,44.37
2017-11-18T00:13:32.945Z,35.93
2017-11-18T00:16:02.453Z,44.27
2017-11-18T00:18:33.297Z,38.83
2017-11-18T00:21:02.486Z,48.97
2017-11-18T00:23:31.993Z,35.57
2017-11-18T00:26:01.598Z,37.10
2017-11-18T00:28:31.105Z,34.53
2017-11-18T00:31:00.001Z,51.40
2017-11-18T00:33:29.866Z,37.90
2017-11-18T00:35:58.803Z,34.93
2017-11-18T00:38:27.495Z,43.17
2017-11-18T00:40:56.479Z,35.53
2017-11-18T00:43:25.783Z,30.80
2017-11-18T00:45:54.478Z,32.37
2017-11-18T00:48:23.156Z,35.23
2017-11-18T00:50:52.048Z,32.57
2017-11-18T00:53:21.245Z,29.90
2017-11-18T00:55:49.958Z,28.53
2017-11-18T00:58:18.718Z,33.87
2017-11-18T01:00:48.239Z,40.53
2017-11-18T01:03:17.823Z,28.40
2017-11-18T01:05:47.133Z,33.97
2017-11-18T01:08:15.817Z,28.97
2017-11-18T01:10:56.177Z,27.70
2017-11-18T01:13:25.378Z,35.53
2017-11-18T01:15:54.476Z,33.57
2017-11-18T01:18:23.363Z,39.43
2017-11-18T01:20:52.052Z,35.03
2017-11-18T01:23:20.938Z,28.47
2017-11-18T01:25:49.834Z,31.63
2017-11-18T01:28:19.345Z,67.27
2017-11-18T01:30:48.432Z,36.60
2017-11-18T01:33:17.324Z,32.80
2017-11-18T01:35:46.422Z,36.13
2017-11-18T01:38:16.010Z,29.90
2017-11-18T01:40:44.921Z,33.83
2017-11-18T01:43:14.428Z,32.67
2017-11-18T01:45:43.635Z,32.47
2017-11-18T01:48:13.231Z,33.10
2017-11-18T01:50:41.923Z,32.43
2017-11-18T01:53:12.036Z,31.53
2017-11-18T01:55:41.235Z,32.03
2017-11-18T01:58:10.134Z,37.23
2017-11-18T02:00:38.823Z,36.30
2017-11-18T02:03:08.025Z,34.30
2017-11-18T02:05:38.231Z,44.00
2017-11-18T02:08:07.842Z,38.27
2017-11-18T02:10:37.553Z,38.80
2017-11-18T02:13:07.677Z,35.20
2017-11-18T02:15:37.586Z,47.30
2017-11-18T02:18:07.144Z,33.90
2017-11-18T02:20:36.081Z,42.27
2017-11-18T02:23:05.803Z,34.93
2017-11-18T02:25:34.684Z,46.77
2017-11-18T02:28:04.400Z,31.07
2017-11-18T02:30:34.109Z,44.17
2017-11-18T02:33:03.817Z,37.53
2017-11-18T02:35:33.118Z,39.60
2017-11-18T02:38:02.008Z,35.47
2017-11-18T02:40:30.895Z,34.23
2017-11-18T02:43:00.198Z,52.90
2017-11-18T02:45:29.908Z,31.97
2017-11-18T02:47:59.618Z,34.90
2017-11-18T02:50:29.338Z,33.40
2017-11-18T02:52:58.321Z,37.73
2017-11-18T02:55:27.210Z,36.67
2017-11-18T02:57:56.926Z,42.20
2017-11-18T03:00:27.659Z,35.30
2017-11-18T03:02:56.657Z,38.03
2017-11-18T03:05:26.360Z,38.47
2017-11-18T03:07:55.255Z,39.37
2017-11-18T03:10:24.805Z,35.50
2017-11-18T03:12:53.552Z,34.13
2017-11-18T03:15:23.254Z,37.10
2017-11-18T03:17:52.146Z,36.93
2017-11-18T03:20:21.958Z,36.90
2017-11-18T03:22:51.261Z,39.67
2017-11-18T03:25:20.150Z,34.83
2017-11-18T03:27:48.999Z,45.17
2017-11-18T03:30:17.939Z,37.17
2017-11-18T03:32:46.724Z,42.40
2017-11-18T03:35:15.509Z,41.00
2017-11-18T03:37:44.811Z,47.87
2017-11-18T03:40:13.496Z,35.70
2017-11-18T03:42:43.545Z,43.53
2017-11-18T03:45:13.781Z,40.20
2017-11-18T03:47:43.556Z,34.40
2017-11-18T03:50:12.862Z,37.20
2017-11-18T03:52:41.945Z,37.50
2017-11-18T03:55:11.253Z,33.93
2017-11-18T03:57:41.789Z,39.53
2017-11-18T04:00:18.245Z,44.77
2017-11-18T04:02:48.944Z,36.97
2017-11-18T04:05:17.875Z,42.30
2017-11-18T04:07:46.934Z,43.57
2017-11-18T04:10:15.857Z,38.07
2017-11-18T04:12:44.748Z,42.40
2017-11-18T04:15:14.465Z,40.50
2017-11-18T04:17:44.084Z,37.30
2017-11-18T04:20:12.856Z,37.33
2017-11-18T04:22:42.221Z,45.13
2017-11-18T04:25:11.404Z,42.03
2017-11-18T04:27:41.479Z,45.00
2017-11-18T04:30:10.575Z,36.43
2017-11-18T04:32:40.380Z,34.10
2017-11-18T04:35:09.172Z,38.07
2017-11-18T04:37:38.231Z,44.47
2017-11-18T04:40:07.987Z,39.20
2017-11-18T04:42:39.120Z,37.13
2017-11-18T04:45:08.079Z,45.67
2017-11-18T04:47:37.210Z,41.50
2017-11-18T04:50:07.878Z,39.23
2017-11-18T04:52:38.170Z,40.40
2017-11-18T04:55:07.878Z,40.83
2017-11-18T04:57:37.589Z,43.13
2017-11-18T05:00:08.104Z,42.73
2017-11-18T05:02:37.826Z,45.20
2017-11-18T05:05:06.715Z,43.10
2017-11-18T05:07:35.617Z,40.10
2017-11-18T05:10:04.498Z,40.30
2017-11-18T05:12:33.603Z,41.27
2017-11-18T05:15:02.333Z,42.80
2017-11-18T05:17:31.792Z,36.23
2017-11-18T05:20:00.678Z,34.47
2017-11-18T05:22:29.569Z,41.40
2017-11-18T05:24:58.663Z,44.43
2017-11-18T05:27:28.786Z,40.27
2017-11-18T05:29:57.885Z,40.27
2017-11-18T05:32:26.717Z,44.47
2017-11-18T05:34:56.274Z,53.80
2017-11-18T05:37:25.165Z,34.47
2017-11-18T05:39:54.057Z,40.70
2017-11-18T05:42:23.154Z,41.13
2017-11-18T05:44:52.456Z,40.17
2017-11-18T05:47:21.551Z,38.43
2017-11-18T05:49:50.337Z,42.57
2017-11-18T05:52:19.433Z,43.73
2017-11-18T05:54:48.325Z,41.57
2017-11-18T05:57:18.447Z,42.33
2017-11-18T05:59:47.147Z,37.40
2017-11-18T06:02:16.433Z,48.83
2017-11-18T06:04:45.281Z,43.40
2017-11-18T06:07:14.215Z,37.77
2017-11-18T06:09:42.908Z,39.23
2017-11-18T06:12:12.404Z,46.83
2017-11-18T06:14:41.666Z,36.83
2017-11-18T06:17:10.396Z,45.50
2017-11-18T06:19:39.288Z,46.27
2017-11-18T06:22:08.176Z,43.90
2017-11-18T06:24:37.535Z,39.87
2017-11-18T06:27:06.264Z,39.83
2017-11-18T06:29:35.157Z,46.37
2017-11-18T06:32:04.003Z,48.83
2017-11-18T06:34:33.142Z,37.43
2017-11-18T06:37:02.340Z,41.63
2017-11-18T06:39:31.848Z,41.03
2017-11-18T06:42:00.538Z,43.63
2017-11-18T06:44:29.833Z,44.13
2017-11-18T06:46:58.516Z,43.50
2017-11-18T06:49:27.512Z,47.03
2017-11-18T06:51:57.118Z,42.70
2017-11-18T06:54:25.907Z,36.37
2017-11-18T06:56:56.133Z,39.03
2017-11-18T06:59:25.738Z,41.23
2017-11-18T07:01:54.430Z,43.53
2017-11-18T07:04:23.459Z,45.83
2017-11-18T07:06:52.365Z,40.00
2017-11-18T07:09:21.918Z,44.77
2017-11-18T07:11:50.605Z,45.37
2017-11-18T07:14:20.314Z,45.70
2017-11-18T07:16:49.419Z,42.23
2017-11-18T07:19:18.301Z,44.67
2017-11-18T07:21:47.199Z,46.23
2017-11-18T07:24:16.393Z,50.90
2017-11-18T07:26:45.895Z,40.67
2017-11-18T07:29:14.792Z,50.57
2017-11-18T07:31:44.297Z,51.27
2017-11-18T07:34:14.380Z,60.70
2017-11-18T07:36:43.304Z,44.67
2017-11-18T07:39:12.200Z,63.70
2017-11-18T07:41:41.594Z,55.27
2017-11-18T07:44:11.842Z,44.77
2017-11-18T07:46:40.913Z,48.33
2017-11-18T07:49:09.702Z,42.07
2017-11-18T07:51:39.318Z,42.97
2017-11-18T07:54:08.408Z,40.03
2017-11-18T07:56:37.914Z,36.07
2017-11-18T07:59:07.222Z,40.50
2017-11-18T08:01:36.475Z,41.63
2017-11-18T08:04:05.610Z,43.83
2017-11-18T08:06:34.602Z,40.83
2017-11-18T08:09:03.917Z,43.13
2017-11-18T08:11:32.792Z,38.90
2017-11-18T08:14:02.721Z,33.00
2017-11-18T08:16:32.326Z,39.23
2017-11-18T08:19:01.211Z,36.77
2017-11-18T08:21:30.103Z,38.50
2017-11-18T08:23:59.196Z,41.83
2017-11-18T08:26:28.380Z,37.60
2017-11-18T08:28:57.700Z,47.23
2017-11-18T08:31:27.000Z,39.87
2017-11-18T08:33:55.889Z,43.20
2017-11-18T08:36:36.668Z,43.40
2017-11-18T08:39:05.552Z,41.43
2017-11-18T08:41:34.233Z,43.53
2017-11-18T08:44:03.539Z,38.33
2017-11-18T08:46:32.836Z,43.87
2017-11-18T08:49:02.338Z,46.07
2017-11-18T08:51:31.235Z,44.10
2017-11-18T08:53:59.920Z,61.47
2017-11-18T08:56:29.580Z,47.03
2017-11-18T08:58:59.139Z,40.53
2017-11-18T09:01:28.846Z,44.77
2017-11-18T09:03:59.379Z,52.93
2017-11-18T09:06:28.876Z,52.17
2017-11-18T09:08:58.346Z,41.80
2017-11-18T09:11:27.890Z,46.07
2017-11-18T09:13:56.575Z,45.97
2017-11-18T09:16:25.261Z,45.67
2017-11-18T09:18:55.176Z,38.83
2017-11-18T09:21:24.476Z,50.63
2017-11-18T09:23:53.578Z,35.70
2017-11-18T09:26:23.076Z,40.77
2017-11-18T09:28:52.895Z,42.60
2017-11-18T09:31:21.678Z,45.57
2017-11-18T09:33:50.977Z,41.63
2017-11-18T09:36:19.870Z,42.50
2017-11-18T09:38:50.928Z,41.30
2017-11-18T09:41:20.017Z,33.67
2017-11-18T09:43:48.900Z,45.33
2017-11-18T09:46:17.926Z,38.90
2017-11-18T09:48:46.688Z,32.70
2017-11-18T09:51:15.785Z,35.53
2017-11-18T09:53:45.293Z,29.27
2017-11-18T09:56:14.790Z,35.17
2017-11-18T09:58:43.884Z,35.20
2017-11-18T10:01:13.394Z,53.03
2017-11-18T10:03:42.865Z,37.80
2017-11-18T10:06:12.056Z,36.17
2017-11-18T10:08:41.663Z,38.00
2017-11-18T10:11:11.221Z,38.80
2017-11-18T10:13:40.784Z,31.20
2017-11-18T10:16:09.907Z,38.87
2017-11-18T10:18:40.169Z,29.43
2017-11-18T10:27:06.717Z,31.27
2017-11-18T10:29:36.216Z,33.93
2017-11-18T10:32:06.385Z,30.30
2017-11-18T10:34:36.511Z,31.73
2017-11-18T10:37:06.059Z,29.97
2017-11-18T10:39:35.359Z,37.10
2017-11-18T10:42:05.074Z,30.03
2017-11-18T10:44:33.941Z,40.67
2017-11-18T10:47:03.272Z,32.90
2017-11-18T10:49:33.177Z,35.40
2017-11-18T10:52:03.299Z,33.03
2017-11-18T10:54:33.212Z,31.27
2017-11-18T10:57:02.721Z,35.23
2017-11-18T10:59:32.291Z,30.00
2017-11-18T11:02:01.937Z,40.70
2017-11-18T11:04:31.661Z,33.10
2017-11-18T11:07:02.006Z,58.07
2017-11-18T11:17:40.131Z,60.30
2017-11-18T11:20:09.673Z,39.60
2017-11-18T11:22:39.418Z,40.30
2017-11-18T11:25:09.467Z,35.73
2017-11-18T11:27:38.563Z,26.47
2017-11-18T11:30:08.067Z,22.40
2017-11-18T11:32:37.573Z,21.37
2017-11-18T11:35:07.287Z,27.67
2017-11-18T11:37:37.403Z,25.30
2017-11-18T11:40:06.911Z,22.73
2017-11-18T11:42:36.582Z,24.27
2017-11-18T11:45:06.329Z,20.80
2017-11-18T11:47:36.043Z,20.90
2017-11-18T11:50:06.110Z,14.60
2017-11-18T11:52:35.710Z,19.37
2017-11-18T11:55:05.278Z,16.13
2017-11-18T11:57:34.991Z,21.60
2017-11-18T12:00:05.070Z,20.00
2017-11-18T12:02:33.697Z,18.07
2017-11-18T12:05:03.608Z,18.20
2017-11-18T12:07:33.113Z,22.40
2017-11-18T12:10:02.841Z,21.73
2017-11-18T12:12:33.247Z,20.60
2017-11-18T12:15:02.958Z,20.77
2017-11-18T12:17:32.462Z,18.67
2017-11-18T12:20:02.373Z,25.57
2017-11-18T12:22:31.827Z,25.70
2017-11-18T12:25:00.974Z,21.90
2017-11-18T12:27:31.302Z,22.23
2017-11-18T12:30:01.217Z,24.27
2017-11-18T12:32:30.517Z,20.20
2017-11-18T12:34:59.819Z,25.13
2017-11-18T12:37:29.423Z,20.80
2017-11-18T12:39:58.525Z,13.70
2017-11-18T12:42:28.714Z,11.43
2017-11-18T12:44:57.735Z,19.97
2017-11-18T12:47:26.935Z,16.13
2017-11-18T12:49:56.545Z,13.20
2017-11-18T12:52:26.050Z,22.83
2017-11-18T12:54:55.530Z,13.90
2017-11-18T12:57:25.061Z,14.63
2017-11-18T12:59:54.154Z,16.57
2017-11-18T13:02:23.762Z,14.57
2017-11-18T13:04:53.266Z,14.27
2017-11-18T13:07:22.978Z,20.47
2017-11-18T13:09:53.102Z,16.50
2017-11-18T13:12:22.605Z,15.97
2017-11-18T13:14:51.699Z,13.17
2017-11-18T13:17:21.100Z,12.90
2017-11-18T13:19:50.201Z,19.53
2017-11-18T13:22:19.293Z,22.57
2017-11-18T13:24:48.185Z,22.57
2017-11-18T13:27:17.484Z,13.13
2017-11-18T13:29:46.580Z,16.03
2017-11-18T13:32:16.496Z,19.80
2017-11-18T13:34:46.720Z,19.73
2017-11-18T13:37:17.050Z,14.87
2017-11-18T13:39:47.374Z,18.00
2017-11-18T13:42:16.260Z,20.90
2017-11-18T13:44:45.762Z,16.70
2017-11-18T13:47:14.860Z,21.73
2017-11-18T13:49:45.045Z,22.03
2017-11-18T13:52:14.076Z,21.10
2017-11-18T13:54:43.579Z,20.43
2017-11-18T13:57:12.676Z,15.07
2017-11-18T13:59:42.234Z,20.67
2017-11-18T14:02:11.890Z,21.83
2017-11-18T14:04:40.789Z,30.93
2017-11-18T14:07:10.084Z,20.50
2017-11-18T14:09:39.281Z,28.23
2017-11-18T14:12:08.785Z,31.93
2017-11-18T14:14:39.086Z,32.40
2017-11-18T14:17:09.128Z,23.77
2017-11-18T14:19:39.253Z,26.03
2017-11-18T14:22:08.964Z,29.30
2017-11-18T14:24:38.772Z,25.63
2017-11-18T14:27:08.080Z,26.27
2017-11-18T14:29:38.169Z,27.50
2017-11-18T14:32:07.668Z,31.13
2017-11-18T14:34:36.908Z,32.43
2017-11-18T14:37:06.300Z,29.40
2017-11-18T14:39:36.013Z,27.07
2017-11-18T14:42:06.267Z,24.00
2017-11-18T14:44:35.337Z,28.77
2017-11-18T14:47:04.597Z,33.10
2017-11-18T14:49:33.837Z,27.13
2017-11-18T14:52:03.535Z,25.40
2017-11-18T14:54:32.995Z,21.80
2017-11-18T14:57:02.479Z,29.97
2017-11-18T14:59:32.334Z,24.10
2017-11-18T15:02:02.261Z,24.50
2017-11-18T15:04:32.007Z,22.57
2017-11-18T15:07:01.696Z,25.97
2017-11-18T15:09:32.287Z,21.40
2017-11-18T15:12:02.538Z,28.57
2017-11-18T15:14:37.484Z,24.47
2017-11-18T15:17:13.017Z,23.03
2017-11-18T15:19:47.552Z,31.83
2017-11-18T15:22:20.703Z,24.93
2017-11-18T15:24:55.581Z,26.20
2017-11-18T15:30:49.065Z,25.20
2017-11-18T15:33:39.666Z,31.70
2017-11-18T15:36:09.873Z,32.57
2017-11-18T15:38:41.901Z,25.63
2017-11-18T15:41:11.861Z,26.70
2017-11-18T15:43:56.932Z,26.67
2017-11-18T15:46:30.744Z,22.93
2017-11-18T15:49:06.187Z,32.23
2017-11-18T15:51:37.488Z,22.50
2017-11-18T15:54:12.462Z,30.60
2017-11-18T15:59:51.523Z,21.87
2017-11-18T16:02:24.712Z,26.47
2017-11-18T16:04:57.657Z,27.70
2017-11-18T16:07:43.131Z,22.77
2017-11-18T16:10:12.385Z,29.00
2017-11-18T16:12:41.659Z,27.17
2017-11-18T16:15:11.533Z,36.57
2017-11-18T16:17:42.529Z,32.37
2017-11-18T16:20:12.661Z,32.50
2017-11-18T16:22:42.265Z,32.07
2017-11-18T16:25:12.992Z,34.70
2017-11-18T16:27:42.818Z,33.83
2017-11-18T16:30:12.072Z,35.70
2017-11-18T16:32:42.030Z,42.13
2017-11-18T16:35:11.939Z,39.03
2017-11-18T16:37:42.178Z,45.60
2017-11-18T16:40:12.436Z,36.03
2017-11-18T16:42:41.867Z,41.10
2017-11-18T16:45:11.806Z,37.93
2017-11-18T16:47:41.365Z,53.17
2017-11-18T16:50:12.096Z,46.90
2017-11-18T16:52:42.389Z,46.00
2017-11-18T16:55:12.169Z,47.50
2017-11-18T16:57:41.646Z,50.63
2017-11-18T17:00:11.410Z,39.40
2017-11-18T17:02:41.104Z,47.37
2017-11-18T17:05:11.229Z,40.00
2017-11-18T17:07:41.161Z,43.50
2017-11-18T17:10:11.374Z,49.33
2017-11-18T17:12:41.158Z,45.10
2017-11-18T17:15:11.140Z,47.10
2017-11-18T17:17:42.006Z,42.07
2017-11-18T17:20:12.076Z,49.43
2017-11-18T17:22:42.269Z,45.23
2017-11-18T17:25:11.981Z,46.70
2017-11-18T17:27:42.362Z,55.40
2017-11-18T17:30:12.376Z,49.03
2017-11-18T17:32:42.274Z,52.80
2017-11-18T17:35:12.740Z,50.00
2017-11-18T17:37:43.084Z,45.23
2017-11-18T17:40:13.428Z,45.63
2017-11-18T17:42:43.742Z,47.33
2017-11-18T17:45:13.869Z,41.83
2017-11-18T17:47:44.192Z,47.70
2017-11-18T17:50:15.477Z,47.50
2017-11-18T17:52:45.372Z,39.33
2017-11-18T17:55:15.345Z,43.37
2017-11-18T17:57:45.849Z,50.40
2017-11-18T18:00:16.453Z,60.03
2017-11-18T18:02:46.479Z,44.87
2017-11-18T18:05:16.568Z,42.80
2017-11-18T18:07:46.921Z,55.90
2017-11-18T18:10:17.822Z,48.30
2017-11-18T18:12:48.457Z,51.63
2017-11-18T18:15:18.565Z,46.00
2017-11-18T18:17:48.673Z,46.53
2017-11-18T18:20:19.342Z,46.47
2017-11-18T18:22:48.595Z,51.53
2017-11-18T18:25:19.056Z,43.23
2017-11-18T18:27:48.867Z,47.30
2017-11-18T18:30:18.218Z,48.63
2017-11-18T18:32:48.793Z,45.10
2017-11-18T18:35:19.329Z,43.57
2017-11-18T18:37:49.241Z,42.50
2017-11-18T18:40:18.956Z,46.83
2017-11-18T18:42:48.150Z,48.07
2017-11-18T18:45:17.055Z,42.73
2017-11-18T18:47:46.751Z,39.50
2017-11-18T18:50:16.668Z,43.67
2017-11-18T18:52:46.794Z,45.00
2017-11-18T18:55:16.289Z,47.97
2017-11-18T18:57:46.005Z,49.07
2017-11-18T19:00:15.405Z,47.70
2017-11-18T19:02:45.112Z,48.47
2017-11-18T19:05:13.902Z,47.40
2017-11-18T19:07:43.894Z,42.93
2017-11-18T19:10:13.326Z,53.53
2017-11-18T19:12:43.648Z,46.67
2017-11-18T19:15:13.970Z,43.07
2017-11-18T19:17:43.134Z,42.30
2017-11-18T19:20:12.179Z,38.67
2017-11-18T19:22:42.692Z,38.80
2017-11-18T19:25:12.356Z,48.10
2017-11-18T19:27:42.636Z,43.23
2017-11-18T19:30:11.892Z,42.10
2017-11-18T19:32:41.543Z,51.97
2017-11-18T19:35:10.504Z,50.43
2017-11-18T19:37:40.040Z,48.03
2017-11-18T19:40:09.686Z,43.33
2017-11-18T19:42:38.953Z,45.50
2017-11-18T19:45:08.655Z,47.63
2017-11-18T19:47:38.376Z,53.40
2017-11-18T19:50:08.286Z,56.00
2017-11-18T19:52:37.999Z,50.70
2017-11-18T19:55:07.853Z,50.47
2017-11-18T19:57:37.406Z,58.60
2017-11-18T20:00:07.187Z,48.30
2017-11-18T20:02:36.096Z,54.13
2017-11-18T20:05:05.413Z,46.20
2017-11-18T20:07:35.532Z,45.17
2017-11-18T20:10:05.658Z,64.20
2017-11-18T20:12:35.284Z,50.47
2017-11-18T20:15:04.150Z,52.00
2017-11-18T20:17:33.860Z,49.43
2017-11-18T20:20:03.364Z,50.63
2017-11-18T20:22:32.669Z,50.23
2017-11-18T20:25:01.557Z,51.90
2017-11-18T20:27:30.563Z,57.67
2017-11-18T20:29:59.339Z,59.67
2017-11-18T20:32:28.176Z,54.70
2017-11-18T20:34:57.137Z,62.70
2017-11-18T20:37:27.240Z,59.50
2017-11-18T20:39:56.130Z,60.33
2017-11-18T20:42:25.845Z,61.67
2017-11-18T20:44:54.748Z,50.83
2017-11-18T20:47:24.400Z,54.47
2017-11-18T20:49:53.338Z,54.83
2017-11-18T20:52:22.357Z,54.57
2017-11-18T20:54:51.390Z,57.57
2017-11-18T20:57:20.213Z,69.80
2017-11-18T20:59:49.103Z,61.53
2017-11-18T21:02:17.949Z,49.63
2017-11-18T21:04:46.787Z,50.47
2017-11-18T21:07:15.885Z,51.03
2017-11-18T21:09:44.776Z,55.73
2017-11-18T21:12:13.667Z,49.80
2017-11-18T21:14:42.552Z,53.30
2017-11-18T21:17:11.457Z,55.20
2017-11-18T21:19:40.334Z,66.33
2017-11-18T21:22:09.181Z,59.47
2017-11-18T21:24:37.910Z,55.57
2017-11-18T21:27:06.930Z,58.97
2017-11-18T21:29:35.968Z,59.57
2017-11-18T21:32:04.787Z,63.20
2017-11-18T21:34:33.679Z,60.70
2017-11-18T21:37:02.578Z,61.77
2017-11-18T21:39:32.489Z,55.27
2017-11-18T21:42:02.195Z,54.73
2017-11-18T21:44:31.397Z,50.03
2017-11-18T21:47:00.597Z,53.50
2017-11-18T21:49:29.576Z,64.97
2017-11-18T21:51:58.589Z,60.40
2017-11-18T21:54:27.481Z,72.87
2017-11-18T21:56:57.188Z,88.30
2017-11-18T21:59:25.872Z,119.27
2017-11-18T22:01:54.613Z,116.43
2017-11-18T22:04:24.149Z,125.17
2017-11-18T22:06:54.143Z,129.63
2017-11-18T22:09:23.295Z,142.10
2017-11-18T22:11:52.168Z,138.77
2017-11-18T22:14:22.441Z,141.70
2017-11-18T22:16:51.182Z,139.07
2017-11-18T22:19:20.597Z,132.53
2017-11-18T22:21:50.553Z,107.73
2017-11-18T22:24:20.089Z,101.23
2017-11-18T22:26:49.274Z,95.17
2017-11-18T22:29:18.301Z,108.00
2017-11-18T22:31:47.556Z,102.23
2017-11-18T22:34:16.672Z,109.00
2017-11-18T22:36:45.690Z,108.53
2017-11-18T22:39:14.681Z,98.80
2017-11-18T22:41:43.575Z,100.50
2017-11-18T22:44:12.894Z,112.03
2017-11-18T22:46:41.970Z,100.40
2017-11-18T22:49:10.652Z,94.87
2017-11-18T22:51:39.503Z,109.40
2017-11-18T22:54:08.430Z,105.73
2017-11-18T22:56:37.131Z,96.70
2017-11-18T22:59:05.818Z,103.53
2017-11-18T23:01:34.594Z,102.07
2017-11-18T23:04:03.483Z,103.30
2017-11-18T23:06:32.384Z,101.10
2017-11-18T23:09:01.268Z,101.17
2017-11-18T23:11:30.263Z,98.93
2017-11-18T23:13:59.253Z,115.47
2017-11-18T23:16:28.042Z,103.87
2017-11-18T23:18:58.060Z,107.77
2017-11-18T23:21:27.055Z,98.90
2017-11-18T23:23:56.047Z,98.37
2017-11-18T23:26:24.837Z,106.43
2017-11-18T23:28:53.827Z,106.20
2017-11-18T23:31:22.718Z,99.47
2017-11-18T23:33:52.429Z,105.33
2017-11-18T23:36:21.313Z,105.30
2017-11-18T23:38:50.219Z,109.00
2017-11-18T23:41:19.000Z,113.70
2017-11-18T23:43:48.095Z,111.07
2017-11-18T23:46:17.032Z,106.30
2017-11-18T23:48:45.717Z,109.93
2017-11-18T23:51:14.461Z,104.30
2017-11-18T23:53:43.353Z,105.47
2017-11-18T23:56:12.087Z,101.07
2017-11-18T23:58:41.508Z,99.50
